createdAt,value
2022-07-29T00:00:33.837Z,16.82
2022-07-29T00:03:02.036Z,16.87
2022-07-29T00:05:30.333Z,16.87
2022-07-29T00:07:58.621Z,16.88
2022-07-29T00:10:28.055Z,16.87
2022-07-29T00:12:56.210Z,16.78
2022-07-29T00:15:24.362Z,16.74
2022-07-29T00:17:52.502Z,16.66
2022-07-29T00:20:20.892Z,16.68
2022-07-29T00:22:49.062Z,16.64
2022-07-29T00:25:17.046Z,16.57
2022-07-29T00:27:47.255Z,16.57
2022-07-29T00:30:15.907Z,16.57
2022-07-29T00:32:44.159Z,16.56
2022-07-29T00:35:29.769Z,16.48
2022-07-29T00:37:57.641Z,16.54
2022-07-29T00:40:25.962Z,16.53
2022-07-29T00:42:55.441Z,16.39
2022-07-29T00:45:24.063Z,16.33
2022-07-29T00:47:52.184Z,16.23
2022-07-29T00:50:20.545Z,16.35
2022-07-29T00:52:48.778Z,16.31
2022-07-29T00:55:17.975Z,16.28
2022-07-29T00:57:47.230Z,16.27
2022-07-29T01:00:19.613Z,16.31
2022-07-29T01:02:49.423Z,16.38
2022-07-29T01:05:20.058Z,16.32
2022-07-29T01:07:49.155Z,16.29
2022-07-29T01:10:18.903Z,16.15
2022-07-29T01:12:50.206Z,16.14
2022-07-29T01:15:19.979Z,16.12
2022-07-29T01:17:55.388Z,16.08
2022-07-29T01:20:33.243Z,16.09
2022-07-29T01:23:17.676Z,16.09
2022-07-29T01:26:01.218Z,16.10
2022-07-29T01:29:07.729Z,16.03
2022-07-29T01:31:59.366Z,16.08
2022-07-29T01:34:37.476Z,15.96
2022-07-29T01:37:17.734Z,15.97
2022-07-29T01:39:49.796Z,16.08
2022-07-29T01:42:26.979Z,15.98
2022-07-29T01:45:01.467Z,15.97
2022-07-29T01:47:41.300Z,15.96
2022-07-29T01:50:13.933Z,16.02
2022-07-29T01:52:54.327Z,16.13
2022-07-29T01:55:24.523Z,16.14
2022-07-29T01:57:53.378Z,16.07
2022-07-29T02:00:24.450Z,15.95
2022-07-29T02:02:54.946Z,15.95
2022-07-29T02:05:25.413Z,15.94
2022-07-29T02:07:57.047Z,15.86
2022-07-29T02:10:29.153Z,15.85
2022-07-29T02:12:59.306Z,15.91
2022-07-29T02:15:31.320Z,15.80
2022-07-29T02:18:03.489Z,15.65
2022-07-29T02:20:33.210Z,15.69
2022-07-29T02:23:02.859Z,15.69
2022-07-29T02:25:38.269Z,15.69
2022-07-29T02:28:08.086Z,15.82
2022-07-29T02:30:41.345Z,15.78
2022-07-29T02:33:12.219Z,15.78
2022-07-29T02:35:43.089Z,15.79
2022-07-29T02:38:31.821Z,15.87
2022-07-29T02:41:02.271Z,15.85
2022-07-29T02:43:33.073Z,15.78
2022-07-29T02:46:06.068Z,15.82
2022-07-29T02:48:58.902Z,15.95
2022-07-29T02:51:41.508Z,16.01
2022-07-29T02:54:17.078Z,15.96
2022-07-29T02:56:48.072Z,16.06
2022-07-29T02:59:19.396Z,16.12
2022-07-29T03:01:50.112Z,15.98
2022-07-29T03:04:25.838Z,15.96
2022-07-29T03:06:55.645Z,15.82
2022-07-29T03:09:25.287Z,15.80
2022-07-29T03:11:55.654Z,15.81
2022-07-29T03:14:25.181Z,15.78
2022-07-29T03:16:55.420Z,15.72
2022-07-29T03:19:23.820Z,15.83
2022-07-29T03:21:52.014Z,15.71
2022-07-29T03:24:40.771Z,15.60
2022-07-29T03:27:08.850Z,15.72
2022-07-29T03:29:37.245Z,15.63
2022-07-29T03:32:09.042Z,15.65
2022-07-29T03:34:39.018Z,15.62
2022-07-29T03:37:08.045Z,15.59
2022-07-29T03:39:42.583Z,15.55
2022-07-29T03:42:14.185Z,15.55
2022-07-29T03:44:47.685Z,15.52
2022-07-29T03:47:19.302Z,15.58
2022-07-29T03:49:51.185Z,15.57
2022-07-29T03:52:20.099Z,15.53
2022-07-29T03:54:48.339Z,15.58
2022-07-29T03:57:18.419Z,15.48
2022-07-29T03:59:47.455Z,15.54
2022-07-29T04:02:21.867Z,15.45
2022-07-29T04:04:51.237Z,15.41
2022-07-29T04:07:19.549Z,15.45
2022-07-29T04:09:47.524Z,15.41
2022-07-29T04:12:15.782Z,15.53
2022-07-29T04:14:43.873Z,15.55
2022-07-29T04:17:11.900Z,15.66
2022-07-29T04:19:41.404Z,15.61
2022-07-29T04:22:09.469Z,15.60
2022-07-29T04:24:37.705Z,15.50
2022-07-29T04:27:05.987Z,15.69
2022-07-29T04:29:34.063Z,15.61
2022-07-29T04:32:02.128Z,15.62
2022-07-29T04:34:30.329Z,15.69
2022-07-29T04:36:59.901Z,15.70
2022-07-29T04:39:29.627Z,15.75
2022-07-29T04:41:59.071Z,15.78
2022-07-29T04:44:28.588Z,15.90
2022-07-29T04:46:57.715Z,15.90
2022-07-29T04:49:26.082Z,15.92
2022-07-29T04:51:54.462Z,15.97
2022-07-29T04:54:23.856Z,15.99
2022-07-29T04:56:53.748Z,16.04
2022-07-29T04:59:21.820Z,16.09
2022-07-29T05:01:49.948Z,16.15
2022-07-29T05:04:18.751Z,16.15
2022-07-29T05:06:47.379Z,16.24
2022-07-29T05:09:15.360Z,16.28
2022-07-29T05:11:45.075Z,16.19
2022-07-29T05:14:13.626Z,16.40
2022-07-29T05:16:42.993Z,16.49
2022-07-29T05:19:14.379Z,16.56
2022-07-29T05:21:43.152Z,16.54
2022-07-29T05:24:11.214Z,16.56
2022-07-29T05:26:39.898Z,16.58
2022-07-29T05:29:44.344Z,16.61
2022-07-29T05:31:57.861Z,16.66
2022-07-29T05:34:26.181Z,16.69
2022-07-29T05:36:54.480Z,16.79
2022-07-29T05:39:22.972Z,16.62
2022-07-29T05:42:11.647Z,16.88
2022-07-29T05:44:42.008Z,16.91
2022-07-29T05:47:10.071Z,16.99
2022-07-29T05:49:38.366Z,16.94
2022-07-29T05:52:07.300Z,17.12
2022-07-29T05:54:35.521Z,17.19
2022-07-29T05:57:03.742Z,17.24
2022-07-29T05:59:32.114Z,17.30
2022-07-29T06:02:01.579Z,17.40
2022-07-29T06:04:29.839Z,17.45
2022-07-29T06:06:58.020Z,17.50
2022-07-29T06:09:27.001Z,17.50
2022-07-29T06:11:55.109Z,17.62
2022-07-29T06:14:23.264Z,17.69
2022-07-29T06:16:51.269Z,17.77
2022-07-29T06:19:21.368Z,17.81
2022-07-29T06:21:50.486Z,17.92
2022-07-29T06:24:18.969Z,17.92
2022-07-29T06:26:47.453Z,18.04
2022-07-29T06:29:15.670Z,18.06
2022-07-29T06:31:43.634Z,18.08
2022-07-29T06:34:11.757Z,18.15
2022-07-29T06:36:41.325Z,18.19
2022-07-29T06:39:11.706Z,18.26
2022-07-29T06:41:40.597Z,18.24
2022-07-29T06:44:08.803Z,18.35
2022-07-29T06:46:37.525Z,18.36
2022-07-29T06:49:05.965Z,18.39
2022-07-29T06:51:34.291Z,18.48
2022-07-29T06:54:06.470Z,18.37
2022-07-29T06:56:39.942Z,18.47
2022-07-29T06:59:09.415Z,18.51
2022-07-29T07:01:38.557Z,18.53
2022-07-29T07:04:06.806Z,18.52
2022-07-29T07:06:34.855Z,18.63
2022-07-29T07:09:04.763Z,18.70
2022-07-29T07:11:33.011Z,18.76
2022-07-29T07:14:03.901Z,18.80
2022-07-29T07:16:42.946Z,18.84
2022-07-29T07:19:11.129Z,18.97
2022-07-29T07:21:42.169Z,19.02
2022-07-29T07:24:12.918Z,19.10
2022-07-29T07:26:41.392Z,19.10
2022-07-29T07:29:09.352Z,19.00
2022-07-29T07:31:39.233Z,19.02
2022-07-29T07:34:07.684Z,18.96
2022-07-29T07:36:35.755Z,19.12
2022-07-29T07:39:04.779Z,19.17
2022-07-29T07:41:34.217Z,19.16
2022-07-29T07:44:02.641Z,19.18
2022-07-29T07:46:31.176Z,19.27
2022-07-29T07:48:59.340Z,19.28
2022-07-29T07:51:28.027Z,19.35
2022-07-29T07:53:56.257Z,19.54
2022-07-29T07:56:25.781Z,20.40
2022-07-29T07:58:55.372Z,21.18
2022-07-29T08:01:24.261Z,21.63
2022-07-29T08:03:52.495Z,22.18
2022-07-29T08:06:20.777Z,22.56
2022-07-29T08:08:49.283Z,22.90
2022-07-29T08:11:17.984Z,23.13
2022-07-29T08:13:46.060Z,22.74
2022-07-29T08:16:16.694Z,23.19
2022-07-29T08:18:46.393Z,23.50
2022-07-29T08:21:15.514Z,23.49
2022-07-29T08:23:59.695Z,23.50
2022-07-29T08:26:28.944Z,22.91
2022-07-29T08:28:57.381Z,22.99
2022-07-29T08:31:26.828Z,22.83
2022-07-29T08:33:54.934Z,22.91
2022-07-29T08:36:23.402Z,22.97
2022-07-29T08:38:52.073Z,23.34
2022-07-29T08:41:20.909Z,23.15
2022-07-29T08:43:49.948Z,22.74
2022-07-29T08:46:18.577Z,22.47
2022-07-29T08:48:48.662Z,22.71
2022-07-29T08:51:18.803Z,22.65
2022-07-29T08:53:50.932Z,22.21
2022-07-29T08:56:21.391Z,22.06
2022-07-29T08:58:51.778Z,22.16
2022-07-29T09:01:35.584Z,21.73
2022-07-29T09:04:10.558Z,21.70
2022-07-29T09:06:42.326Z,21.82
2022-07-29T09:09:11.008Z,22.39
2022-07-29T09:11:39.752Z,22.97
2022-07-29T09:14:08.430Z,23.04
2022-07-29T09:16:53.537Z,23.08
2022-07-29T09:19:25.954Z,23.01
2022-07-29T09:22:00.460Z,23.00
2022-07-29T09:24:44.908Z,22.86
2022-07-29T09:27:21.307Z,22.81
2022-07-29T09:29:50.175Z,22.93
2022-07-29T09:32:18.278Z,22.58
2022-07-29T09:34:48.025Z,22.76
2022-07-29T09:37:28.341Z,22.82
2022-07-29T09:39:56.530Z,22.86
2022-07-29T09:42:31.381Z,22.78
2022-07-29T09:44:59.429Z,22.73
2022-07-29T09:47:43.614Z,22.78
2022-07-29T09:50:13.785Z,22.86
2022-07-29T09:52:50.176Z,22.81
2022-07-29T09:55:19.893Z,22.89
2022-07-29T09:57:49.088Z,22.73
2022-07-29T10:00:19.241Z,22.80
2022-07-29T10:02:48.817Z,22.87
2022-07-29T10:05:23.542Z,22.49
2022-07-29T10:07:54.272Z,22.51
2022-07-29T10:10:27.502Z,22.49
2022-07-29T10:12:59.055Z,22.70
2022-07-29T10:15:31.442Z,22.52
2022-07-29T10:18:00.117Z,22.64
2022-07-29T10:20:30.323Z,22.77
2022-07-29T10:22:58.701Z,22.83
2022-07-29T10:25:28.072Z,22.88
2022-07-29T10:27:56.382Z,22.91
2022-07-29T10:30:26.537Z,22.82
2022-07-29T10:33:11.213Z,22.70
2022-07-29T10:35:56.285Z,22.87
2022-07-29T10:38:46.043Z,22.89
2022-07-29T10:44:26.908Z,22.77
2022-07-29T10:46:55.933Z,22.76
2022-07-29T10:49:27.831Z,22.91
2022-07-29T10:52:06.206Z,22.86
2022-07-29T10:54:46.167Z,22.76
2022-07-29T10:57:25.766Z,22.77
2022-07-29T11:00:32.249Z,22.75
2022-07-29T11:03:04.867Z,22.72
2022-07-29T11:05:56.243Z,22.89
2022-07-29T11:08:29.332Z,22.59
2022-07-29T11:11:33.560Z,22.29
2022-07-29T11:14:03.587Z,22.42
2022-07-29T11:17:06.900Z,22.52
2022-07-29T11:19:40.275Z,22.70
2022-07-29T11:22:11.973Z,22.53
2022-07-29T11:24:50.304Z,22.57
2022-07-29T11:27:21.133Z,22.45
2022-07-29T11:29:54.957Z,22.39
2022-07-29T11:32:25.562Z,22.47
2022-07-29T11:35:16.697Z,22.63
2022-07-29T11:40:37.105Z,22.71
2022-07-29T11:43:07.328Z,22.85
2022-07-29T11:45:48.544Z,22.75
2022-07-29T11:48:28.955Z,22.69
2022-07-29T11:51:03.109Z,22.66
2022-07-29T11:53:33.120Z,22.80
2022-07-29T11:56:25.638Z,22.93
2022-07-29T11:59:08.503Z,23.02
2022-07-29T12:01:37.136Z,23.11
2022-07-29T12:04:06.888Z,23.34
2022-07-29T12:06:35.127Z,23.29
2022-07-29T12:09:14.531Z,23.20
2022-07-29T12:11:45.032Z,23.23
2022-07-29T12:14:29.561Z,23.02
2022-07-29T12:16:58.044Z,23.25
2022-07-29T12:19:27.684Z,23.35
2022-07-29T12:22:00.864Z,23.34
2022-07-29T12:24:45.177Z,23.42
2022-07-29T12:27:29.265Z,23.54
2022-07-29T12:29:58.752Z,23.56
2022-07-29T12:32:33.975Z,23.51
2022-07-29T12:35:04.809Z,23.58
2022-07-29T12:37:41.306Z,23.63
2022-07-29T12:40:12.670Z,23.63
2022-07-29T12:42:42.326Z,23.28
2022-07-29T12:45:10.714Z,23.31
2022-07-29T12:47:54.633Z,23.33
2022-07-29T12:50:26.298Z,23.60
2022-07-29T12:52:54.803Z,23.67
2022-07-29T12:55:40.611Z,23.56
2022-07-29T12:58:10.496Z,23.51
2022-07-29T13:00:39.033Z,23.63
2022-07-29T13:03:08.015Z,23.57
2022-07-29T13:05:48.537Z,23.54
2022-07-29T13:08:20.076Z,23.75
2022-07-29T13:10:50.324Z,23.91
2022-07-29T13:13:19.901Z,23.96
2022-07-29T13:15:49.263Z,24.12
2022-07-29T13:18:30.040Z,23.97
2022-07-29T13:20:58.734Z,24.04
2022-07-29T13:23:26.744Z,24.00
2022-07-29T13:25:54.867Z,23.74
2022-07-29T13:28:25.356Z,23.69
2022-07-29T13:30:53.456Z,23.91
2022-07-29T13:33:22.046Z,24.01
2022-07-29T13:35:50.254Z,23.89
2022-07-29T13:38:18.439Z,23.93
2022-07-29T13:40:46.909Z,24.19
2022-07-29T13:43:15.467Z,24.28
2022-07-29T13:45:44.976Z,23.98
2022-07-29T13:48:13.306Z,24.12
2022-07-29T13:50:41.406Z,24.16
2022-07-29T13:53:09.671Z,24.38
2022-07-29T13:55:45.899Z,24.13
2022-07-29T13:58:13.896Z,24.19
2022-07-29T14:00:41.978Z,24.27
2022-07-29T14:03:11.647Z,24.44
2022-07-29T14:05:39.626Z,24.43
2022-07-29T14:08:07.942Z,24.31
2022-07-29T14:10:36.357Z,24.16
2022-07-29T14:13:04.404Z,24.03
2022-07-29T14:15:32.429Z,23.90
2022-07-29T14:18:00.821Z,23.94
2022-07-29T14:20:30.801Z,23.87
2022-07-29T14:22:58.893Z,24.03
2022-07-29T14:25:27.264Z,24.20
2022-07-29T14:27:55.297Z,24.44
2022-07-29T14:30:26.625Z,24.27
2022-07-29T14:32:54.973Z,24.03
2022-07-29T14:35:23.177Z,24.31
2022-07-29T14:37:52.619Z,24.34
2022-07-29T14:40:20.938Z,24.45
2022-07-29T14:42:49.078Z,24.36
2022-07-29T14:45:17.104Z,24.38
2022-07-29T14:47:45.394Z,24.48
2022-07-29T14:50:14.533Z,24.51
2022-07-29T14:52:42.521Z,24.31
2022-07-29T14:55:16.421Z,24.33
2022-07-29T14:57:48.480Z,24.40
2022-07-29T15:00:17.167Z,24.41
2022-07-29T15:03:01.446Z,24.41
2022-07-29T15:05:31.279Z,24.50
2022-07-29T15:07:59.850Z,24.33
2022-07-29T15:10:29.800Z,23.98
2022-07-29T15:12:58.873Z,24.06
2022-07-29T15:15:27.269Z,24.26
2022-07-29T15:17:55.218Z,24.38
2022-07-29T15:20:26.449Z,24.32
2022-07-29T15:22:56.493Z,24.17
2022-07-29T15:25:24.708Z,24.18
2022-07-29T15:27:59.191Z,24.20
2022-07-29T15:30:32.930Z,24.28
2022-07-29T15:33:01.420Z,24.23
2022-07-29T15:35:29.435Z,24.12
2022-07-29T15:37:57.535Z,24.22
2022-07-29T15:40:25.623Z,24.26
2022-07-29T15:42:54.963Z,24.44
2022-07-29T15:45:23.146Z,24.39
2022-07-29T15:47:51.517Z,24.42
2022-07-29T15:50:20.159Z,24.35
2022-07-29T15:52:48.266Z,24.28
2022-07-29T15:55:16.899Z,24.11
2022-07-29T15:57:44.884Z,24.12
2022-07-29T16:00:17.413Z,23.91
2022-07-29T16:02:45.635Z,23.84
2022-07-29T16:05:13.948Z,23.80
2022-07-29T16:07:42.039Z,23.94
2022-07-29T16:10:10.440Z,23.91
2022-07-29T16:12:38.597Z,24.00
2022-07-29T16:15:10.384Z,24.05
2022-07-29T16:17:40.702Z,23.82
2022-07-29T16:20:09.982Z,24.00
2022-07-29T16:22:40.704Z,24.14
2022-07-29T16:25:09.813Z,24.26
2022-07-29T16:27:38.423Z,24.26
2022-07-29T16:30:11.046Z,24.13
2022-07-29T16:32:40.630Z,24.30
2022-07-29T16:35:09.984Z,24.40
2022-07-29T16:37:39.325Z,24.41
2022-07-29T16:40:11.369Z,24.41
2022-07-29T16:42:48.022Z,24.36
2022-07-29T16:45:16.665Z,24.34
2022-07-29T16:47:47.759Z,24.32
2022-07-29T16:50:15.707Z,24.30
2022-07-29T16:52:43.953Z,24.17
2022-07-29T16:55:12.156Z,24.13
2022-07-29T16:57:41.846Z,24.22
2022-07-29T17:00:11.113Z,24.22
2022-07-29T17:02:39.375Z,24.24
2022-07-29T17:05:10.719Z,24.21
2022-07-29T17:07:39.110Z,24.21
2022-07-29T17:10:09.464Z,24.19
2022-07-29T17:12:38.448Z,24.14
2022-07-29T17:15:12.047Z,24.18
2022-07-29T17:17:55.034Z,24.19
2022-07-29T17:20:26.935Z,24.19
2022-07-29T17:22:55.047Z,24.21
2022-07-29T17:25:24.589Z,24.22
2022-07-29T17:27:56.385Z,24.16
2022-07-29T17:30:26.955Z,24.21
2022-07-29T17:32:55.337Z,24.20
2022-07-29T17:35:41.023Z,24.12
2022-07-29T17:38:10.800Z,23.98
2022-07-29T17:40:38.787Z,24.02
2022-07-29T17:43:09.304Z,23.95
2022-07-29T17:45:49.376Z,24.05
2022-07-29T17:48:19.491Z,23.98
2022-07-29T17:50:48.562Z,23.98
2022-07-29T17:53:18.406Z,23.95
2022-07-29T17:55:48.724Z,23.93
2022-07-29T17:58:17.335Z,23.93
2022-07-29T18:00:46.109Z,23.81
2022-07-29T18:03:14.264Z,23.78
2022-07-29T18:05:43.032Z,23.71
2022-07-29T18:08:11.473Z,23.62
2022-07-29T18:10:41.461Z,23.58
2022-07-29T18:13:09.724Z,23.67
2022-07-29T18:15:40.487Z,23.66
2022-07-29T18:18:08.630Z,23.62
2022-07-29T18:20:37.146Z,23.57
2022-07-29T18:23:05.455Z,23.33
2022-07-29T18:25:33.549Z,23.53
2022-07-29T18:28:03.281Z,23.45
2022-07-29T18:30:33.811Z,23.45
2022-07-29T18:35:51.870Z,23.29
2022-07-29T18:38:21.933Z,23.23
2022-07-29T18:40:49.871Z,23.08
2022-07-29T18:43:19.401Z,23.00
2022-07-29T18:45:48.526Z,22.90
2022-07-29T18:48:18.395Z,22.90
2022-07-29T18:50:46.512Z,22.83
2022-07-29T18:53:14.575Z,22.73
2022-07-29T18:55:42.587Z,22.72
2022-07-29T18:58:10.701Z,22.70
2022-07-29T19:00:40.267Z,22.64
2022-07-29T19:03:09.722Z,22.59
2022-07-29T19:05:38.268Z,22.48
2022-07-29T19:08:07.255Z,22.54
2022-07-29T19:10:36.338Z,22.36
2022-07-29T19:13:04.776Z,22.51
2022-07-29T19:15:32.965Z,22.45
2022-07-29T19:18:02.326Z,22.43
2022-07-29T19:20:30.583Z,22.42
2022-07-29T19:22:58.729Z,22.36
2022-07-29T19:25:26.930Z,22.42
2022-07-29T19:27:55.104Z,22.39
2022-07-29T19:30:23.650Z,22.39
2022-07-29T19:32:51.688Z,22.41
2022-07-29T19:35:32.411Z,22.37
2022-07-29T19:38:01.939Z,22.34
2022-07-29T19:40:30.384Z,22.39
2022-07-29T19:42:59.421Z,22.41
2022-07-29T19:45:28.961Z,22.43
2022-07-29T19:48:01.338Z,22.45
2022-07-29T19:50:31.330Z,22.40
2022-07-29T19:53:00.142Z,22.41
2022-07-29T19:55:28.486Z,22.37
2022-07-29T19:57:57.151Z,22.35
2022-07-29T20:00:26.267Z,22.28
2022-07-29T20:02:54.347Z,22.32
2022-07-29T20:05:28.109Z,22.32
2022-07-29T20:07:58.604Z,22.33
2022-07-29T20:10:27.102Z,22.32
2022-07-29T20:12:55.457Z,22.30
2022-07-29T20:15:23.763Z,22.33
2022-07-29T20:17:56.942Z,22.30
2022-07-29T20:20:26.363Z,22.20
2022-07-29T20:22:55.046Z,22.11
2022-07-29T20:25:24.769Z,22.02
2022-07-29T20:27:54.458Z,22.07
2022-07-29T20:30:23.672Z,22.06
2022-07-29T20:32:51.885Z,21.93
2022-07-29T20:35:22.409Z,22.01
2022-07-29T20:37:52.303Z,22.00
2022-07-29T20:40:26.067Z,22.05
2022-07-29T20:42:54.533Z,21.99
2022-07-29T20:45:23.614Z,21.86
2022-07-29T20:47:52.243Z,21.83
2022-07-29T20:50:23.627Z,21.76
2022-07-29T20:52:52.420Z,21.70
2022-07-29T20:55:20.646Z,21.71
2022-07-29T20:57:50.168Z,21.79
2022-07-29T21:00:18.352Z,21.73
2022-07-29T21:02:47.411Z,21.83
2022-07-29T21:05:16.062Z,21.76
2022-07-29T21:07:44.266Z,21.81
2022-07-29T21:10:12.492Z,21.76
2022-07-29T21:12:42.058Z,21.68
2022-07-29T21:15:13.633Z,21.71
2022-07-29T21:17:46.951Z,21.73
2022-07-29T21:20:16.410Z,21.68
2022-07-29T21:22:45.336Z,21.68
2022-07-29T21:25:13.876Z,21.69
2022-07-29T21:27:59.513Z,21.62
2022-07-29T21:30:29.288Z,21.64
2022-07-29T21:32:57.360Z,21.66
2022-07-29T21:36:01.733Z,21.60
2022-07-29T21:38:16.441Z,21.57
2022-07-29T21:40:44.978Z,21.61
2022-07-29T21:43:13.332Z,21.48
2022-07-29T21:45:44.059Z,21.40
2022-07-29T21:48:12.045Z,21.37
2022-07-29T21:50:40.157Z,21.36
2022-07-29T21:53:08.620Z,21.36
2022-07-29T21:55:40.922Z,21.32
2022-07-29T21:58:11.134Z,21.27
2022-07-29T22:00:39.354Z,21.23
2022-07-29T22:03:09.126Z,21.19
2022-07-29T22:05:37.738Z,21.18
2022-07-29T22:08:08.327Z,21.17
2022-07-29T22:10:36.799Z,21.20
2022-07-29T22:13:05.554Z,21.20
2022-07-29T22:15:33.622Z,21.02
2022-07-29T22:18:01.763Z,21.07
2022-07-29T22:20:31.573Z,21.00
2022-07-29T22:22:59.626Z,21.01
2022-07-29T22:25:28.407Z,20.99
2022-07-29T22:27:56.663Z,21.04
2022-07-29T22:30:25.067Z,21.02
2022-07-29T22:32:53.177Z,20.93
2022-07-29T22:35:21.521Z,20.87
2022-07-29T22:37:51.193Z,20.80
2022-07-29T22:40:19.250Z,20.95
2022-07-29T22:42:47.598Z,20.95
2022-07-29T22:45:15.649Z,20.86
2022-07-29T22:47:47.940Z,20.86
2022-07-29T22:50:17.374Z,20.72
2022-07-29T22:52:45.699Z,20.64
2022-07-29T22:55:15.754Z,20.62
2022-07-29T22:57:44.379Z,20.68
2022-07-29T23:00:13.931Z,20.60
2022-07-29T23:02:42.291Z,20.45
2022-07-29T23:05:11.576Z,20.39
2022-07-29T23:07:39.619Z,20.50
2022-07-29T23:10:08.607Z,20.37
2022-07-29T23:12:40.152Z,20.31
2022-07-29T23:15:08.953Z,20.36
2022-07-29T23:17:37.161Z,20.41
2022-07-29T23:20:08.047Z,20.21
2022-07-29T23:22:36.423Z,20.41
2022-07-29T23:25:09.107Z,20.10
2022-07-29T23:27:38.599Z,19.74
2022-07-29T23:30:10.701Z,19.91
2022-07-29T23:32:38.683Z,19.90
2022-07-29T23:35:08.621Z,19.86
2022-07-29T23:37:37.211Z,19.80
2022-07-29T23:40:06.625Z,19.75
2022-07-29T23:42:38.395Z,19.73
2022-07-29T23:45:07.394Z,19.78
2022-07-29T23:47:35.662Z,19.79
2022-07-29T23:50:03.827Z,19.72
2022-07-29T23:52:31.915Z,19.66
2022-07-29T23:55:37.998Z,19.62
2022-07-29T23:57:49.962Z,19.53
